TA92 weather

CLOSED Rowan Heliport
Houston, Texas, United States

Public forecast

Using degrees Fahrenheit for public forecast. Weather courtesy of forecast.io.

METAR (pilot weather report)

Closest report is William P Hobby Airport, 1.0 nm (1.8 km) NNE. Retrieved 2019/07/18 17:53 UTC (34 minutes ago):

KHOU 181753Z COR 18015KT 10SM SCT035 SCT250 33/23 A3003 RMK AO2 RAB1655E05 SLP172 P0000 60000 T03280233 10339 20272 58005 $

TAF (pilot weather forecast)

Closest forecast is William P Hobby Airport, 1.0 nm (1.8 km) NNE. Retrieved 2019/07/18 18:22 UTC (5 minutes ago):

TAF KHOU 181720Z 1818/1918 17012G20KT P6SM SCT040 FM190100 17009KT P6SM FEW035 FM190600 18004KT P6SM FEW015 FM191300 17008KT P6SM SCT025